createdAt,value
2018-07-16T00:01:14.384Z,0.00
2018-07-16T00:02:13.388Z,0.00
2018-07-16T00:03:13.388Z,0.00
2018-07-16T00:03:52.390Z,0.00
2018-07-16T00:04:51.987Z,0.00
2018-07-16T00:06:13.888Z,0.00
2018-07-16T00:08:24.385Z,0.00
2018-07-16T00:09:24.390Z,0.00
2018-07-16T00:10:24.392Z,0.00
2018-07-16T00:11:24.017Z,0.00
2018-07-16T00:12:45.906Z,0.00
2018-07-16T00:13:24.893Z,0.00
2018-07-16T00:14:45.918Z,0.00
2018-07-16T00:15:26.353Z,0.00
2018-07-16T00:16:48.393Z,0.00
2018-07-16T00:17:39.392Z,0.00
2018-07-16T00:18:25.392Z,0.00
2018-07-16T00:20:57.139Z,0.00
2018-07-16T00:21:57.146Z,0.00
2018-07-16T00:22:57.145Z,0.00
2018-07-16T00:23:57.653Z,0.00
2018-07-16T00:24:57.647Z,0.00
2018-07-16T00:25:57.646Z,0.00
2018-07-16T00:26:57.646Z,0.00
2018-07-16T00:31:01.349Z,0.00
2018-07-16T00:32:01.359Z,0.00
2018-07-16T00:33:22.359Z,0.00
2018-07-16T00:35:33.106Z,0.00
2018-07-16T00:36:33.117Z,0.00
2018-07-16T00:37:33.113Z,0.00
2018-07-16T00:40:04.936Z,0.00
2018-07-16T00:41:04.888Z,0.00
2018-07-16T00:42:04.888Z,0.00
2018-07-16T00:44:36.633Z,0.00
2018-07-16T00:45:59.572Z,0.00
2018-07-16T00:46:36.639Z,0.00
2018-07-16T00:51:00.815Z,0.00
2018-07-16T00:51:39.821Z,0.00
2018-07-16T00:54:11.448Z,0.00
2018-07-16T00:55:11.462Z,0.00
2018-07-16T00:56:32.468Z,0.00
2018-07-16T00:57:11.956Z,0.00
2018-07-16T00:58:11.955Z,0.00
2018-07-16T00:59:12.956Z,0.00
2018-07-16T01:00:32.956Z,0.00
2018-07-16T01:01:33.455Z,0.00
2018-07-16T01:02:11.682Z,0.00
2018-07-16T01:03:12.456Z,0.00
2018-07-16T01:04:12.456Z,0.00
2018-07-16T01:05:12.963Z,0.00
2018-07-16T01:06:33.963Z,0.00
2018-07-16T01:07:12.336Z,0.00
2018-07-16T01:08:12.956Z,0.00
2018-07-16T01:09:13.481Z,0.00
2018-07-16T01:10:13.456Z,0.00
2018-07-16T01:11:12.805Z,0.00
2018-07-16T01:12:13.460Z,0.00
2018-07-16T01:13:13.956Z,0.00
2018-07-16T01:14:13.968Z,0.00
2018-07-16T01:15:13.956Z,0.00
2018-07-16T01:16:13.961Z,0.00
2018-07-16T01:17:13.561Z,0.00
2018-07-16T01:18:14.456Z,0.00
2018-07-16T01:19:14.455Z,0.00
2018-07-16T01:20:14.457Z,0.00
2018-07-16T01:21:14.055Z,0.00
2018-07-16T01:22:14.997Z,0.00
2018-07-16T01:23:14.955Z,0.00
2018-07-16T01:24:14.977Z,0.00
2018-07-16T01:25:14.575Z,0.00
2018-07-16T01:26:15.456Z,0.00
2018-07-16T01:27:36.455Z,0.00
2018-07-16T01:28:15.455Z,0.00
2018-07-16T01:29:15.955Z,0.00
2018-07-16T01:30:15.952Z,0.00
2018-07-16T01:31:15.954Z,0.00
2018-07-16T01:32:15.961Z,0.00
2018-07-16T01:33:16.476Z,0.00
2018-07-16T01:34:30.476Z,0.00
2018-07-16T01:35:16.457Z,0.00
2018-07-16T01:36:40.887Z,0.00
2018-07-16T01:37:16.956Z,0.00
2018-07-16T01:39:48.325Z,0.00
2018-07-16T01:40:48.337Z,0.00
2018-07-16T01:41:48.830Z,0.00
2018-07-16T01:42:50.266Z,0.00
2018-07-16T01:43:49.765Z,0.00
2018-07-16T01:44:50.827Z,0.00
2018-07-16T01:45:48.833Z,0.00
2018-07-16T01:46:48.437Z,0.00
2018-07-16T01:47:49.390Z,0.00
2018-07-16T01:48:49.333Z,0.00
2018-07-16T01:49:49.332Z,0.00
2018-07-16T01:50:49.332Z,0.00
2018-07-16T01:51:50.765Z,0.00
2018-07-16T01:54:21.233Z,0.00
2018-07-16T01:55:21.242Z,0.00
2018-07-16T01:56:21.235Z,0.00
2018-07-16T01:57:21.738Z,0.00
2018-07-16T01:58:21.739Z,0.00
2018-07-16T01:59:21.745Z,0.00
2018-07-16T02:00:21.736Z,0.00
2018-07-16T02:01:49.243Z,0.00
2018-07-16T02:02:28.261Z,0.00
2018-07-16T02:03:22.236Z,0.00
2018-07-16T02:04:22.241Z,0.00
2018-07-16T02:05:22.735Z,0.00
2018-07-16T02:06:23.681Z,0.00
2018-07-16T02:07:22.736Z,0.00
2018-07-16T02:08:43.735Z,0.00
2018-07-16T02:09:22.743Z,0.00
2018-07-16T02:10:29.237Z,0.00
2018-07-16T02:11:23.239Z,0.00
2018-07-16T02:12:23.235Z,0.00
2018-07-16T02:13:23.235Z,0.00
2018-07-16T02:17:26.428Z,0.00
2018-07-16T02:18:26.476Z,0.00
2018-07-16T02:19:26.436Z,0.00
2018-07-16T02:20:26.440Z,0.00
2018-07-16T02:23:19.196Z,0.00
2018-07-16T02:23:58.208Z,0.00
2018-07-16T02:24:58.210Z,0.00
2018-07-16T02:25:58.703Z,0.00
2018-07-16T02:26:57.952Z,0.00
2018-07-16T02:27:58.709Z,0.00
2018-07-16T02:28:58.704Z,0.00
2018-07-16T02:29:59.205Z,0.00
2018-07-16T02:31:20.204Z,0.00
2018-07-16T02:31:59.204Z,0.00
2018-07-16T02:32:59.199Z,0.00
2018-07-16T02:33:59.708Z,0.00
2018-07-16T02:34:58.925Z,0.00
2018-07-16T02:35:59.710Z,0.00
2018-07-16T02:36:59.704Z,0.00
2018-07-16T02:37:59.308Z,0.00
2018-07-16T02:39:00.204Z,0.00
2018-07-16T02:40:00.208Z,0.00
2018-07-16T02:41:00.204Z,0.00
2018-07-16T02:42:00.704Z,0.00
2018-07-16T02:43:00.714Z,0.00
2018-07-16T02:44:00.701Z,0.00
2018-07-16T02:45:00.199Z,0.00
2018-07-16T02:46:01.204Z,0.00
2018-07-16T02:47:22.205Z,0.00
2018-07-16T02:48:01.207Z,0.00
2018-07-16T02:49:01.216Z,0.00
2018-07-16T02:51:33.019Z,4.00
2018-07-16T02:54:04.508Z,0.00
2018-07-16T02:55:04.516Z,4.00
2018-07-16T02:56:04.517Z,4.00
2018-07-16T02:57:05.016Z,0.00
2018-07-16T02:58:05.015Z,4.00
2018-07-16T02:59:05.013Z,4.00
2018-07-16T03:00:08.950Z,4.00
2018-07-16T03:01:05.515Z,4.00
2018-07-16T03:02:05.515Z,4.00
2018-07-16T03:03:05.516Z,8.00
2018-07-16T03:04:05.519Z,8.00
2018-07-16T03:05:05.516Z,8.00
2018-07-16T03:06:06.022Z,8.00
2018-07-16T03:07:05.254Z,8.00
2018-07-16T03:08:06.016Z,8.00
2018-07-16T03:09:06.015Z,12.00
2018-07-16T03:11:58.770Z,16.00
2018-07-16T03:12:37.777Z,20.00
2018-07-16T03:13:37.775Z,20.00
2018-07-16T03:14:59.287Z,24.00
2018-07-16T03:15:41.209Z,28.00
2018-07-16T03:16:39.709Z,28.00
2018-07-16T03:17:38.279Z,32.00
2018-07-16T03:18:37.877Z,40.00
2018-07-16T03:19:59.777Z,40.00
2018-07-16T03:20:59.778Z,48.00
2018-07-16T03:21:38.253Z,48.00
2018-07-16T03:24:10.535Z,60.00
2018-07-16T03:25:31.541Z,64.00
2018-07-16T03:26:31.541Z,68.00
2018-07-16T03:30:13.744Z,96.00
2018-07-16T03:31:13.750Z,104.00
2018-07-16T03:32:13.753Z,108.00
2018-07-16T03:33:14.250Z,116.00
2018-07-16T03:34:14.250Z,128.00
2018-07-16T03:35:14.252Z,136.00
2018-07-16T03:36:14.250Z,144.00
2018-07-16T03:37:14.750Z,156.00
2018-07-16T03:38:14.750Z,168.00
2018-07-16T03:39:14.750Z,180.00
2018-07-16T03:40:14.749Z,192.00
2018-07-16T03:41:14.343Z,200.00
2018-07-16T03:42:15.247Z,212.00
2018-07-16T03:43:15.254Z,224.00
2018-07-16T03:44:15.250Z,236.00
2018-07-16T03:45:15.750Z,248.00
2018-07-16T03:46:15.754Z,260.00
2018-07-16T03:47:15.761Z,276.00
2018-07-16T03:48:15.752Z,288.00
2018-07-16T03:49:16.250Z,300.00
2018-07-16T03:50:15.488Z,312.00
2018-07-16T03:51:16.253Z,324.00
2018-07-16T03:52:16.250Z,340.00
2018-07-16T03:56:19.457Z,388.00
2018-07-16T03:57:19.453Z,396.00
2018-07-16T03:58:19.457Z,404.00
2018-07-16T03:59:19.953Z,416.00
2018-07-16T04:00:19.954Z,424.00
2018-07-16T04:01:41.046Z,432.00
2018-07-16T04:02:19.963Z,440.00
2018-07-16T04:03:20.454Z,456.00
2018-07-16T04:05:51.833Z,480.00
2018-07-16T04:07:12.842Z,484.00
2018-07-16T04:07:51.319Z,484.00
2018-07-16T04:10:44.570Z,512.00
2018-07-16T04:11:23.602Z,520.00
2018-07-16T04:12:44.577Z,532.00
2018-07-16T04:13:24.079Z,536.00
2018-07-16T04:14:45.076Z,544.00
2018-07-16T04:15:24.077Z,552.00
2018-07-16T04:16:24.077Z,552.00
2018-07-16T04:17:24.582Z,552.00
2018-07-16T04:18:45.578Z,556.00
2018-07-16T04:19:23.931Z,552.00
2018-07-16T04:20:26.579Z,552.00
2018-07-16T04:21:46.077Z,556.00
2018-07-16T04:22:46.077Z,560.00
2018-07-16T04:23:25.120Z,568.00
2018-07-16T04:24:25.085Z,572.00
2018-07-16T04:26:57.324Z,584.00
2018-07-16T04:27:57.331Z,588.00
2018-07-16T04:28:57.331Z,588.00
2018-07-16T04:29:57.331Z,592.00
2018-07-16T04:34:21.493Z,548.00
2018-07-16T04:35:21.505Z,556.00
2018-07-16T04:36:21.500Z,552.00
2018-07-16T04:38:32.257Z,564.00
2018-07-16T04:39:32.265Z,564.00
2018-07-16T04:40:32.265Z,580.00
2018-07-16T04:41:53.765Z,596.00
2018-07-16T04:44:04.148Z,636.00
2018-07-16T04:45:04.151Z,636.00
2018-07-16T04:46:04.154Z,636.00
2018-07-16T04:48:35.898Z,648.00
2018-07-16T04:49:35.910Z,668.00
2018-07-16T04:50:35.906Z,660.00
2018-07-16T04:51:36.404Z,652.00
2018-07-16T04:52:36.404Z,656.00
2018-07-16T04:53:36.403Z,664.00
2018-07-16T04:54:57.404Z,660.00
2018-07-16T04:55:36.907Z,648.00
2018-07-16T04:56:37.902Z,648.00
2018-07-16T04:57:36.904Z,660.00
2018-07-16T04:58:36.905Z,672.00
2018-07-16T04:59:37.409Z,688.00
2018-07-16T05:05:13.660Z,772.00
2018-07-16T05:06:32.666Z,788.00
2018-07-16T05:07:11.662Z,792.00
2018-07-16T05:08:34.626Z,804.00
2018-07-16T05:09:34.122Z,820.00
2018-07-16T05:10:13.103Z,852.00
2018-07-16T05:11:12.165Z,872.00
2018-07-16T05:12:11.645Z,876.00
2018-07-16T05:13:32.741Z,888.00
2018-07-16T05:14:12.666Z,900.00
2018-07-16T05:15:35.099Z,920.00
2018-07-16T05:16:12.666Z,928.00
2018-07-16T05:17:12.018Z,924.00
2018-07-16T05:18:12.776Z,896.00
2018-07-16T05:19:13.165Z,928.00
2018-07-16T05:20:13.166Z,932.00
2018-07-16T05:21:13.166Z,924.00
2018-07-16T05:22:12.652Z,912.00
2018-07-16T05:23:34.672Z,908.00
2018-07-16T05:24:15.673Z,900.00
2018-07-16T05:25:13.013Z,880.00
2018-07-16T05:26:13.671Z,872.00
2018-07-16T05:27:14.167Z,872.00
2018-07-16T05:28:14.172Z,888.00
2018-07-16T05:29:13.533Z,912.00
2018-07-16T05:30:13.631Z,936.00
2018-07-16T05:31:15.605Z,956.00
2018-07-16T05:32:14.747Z,992.00
2018-07-16T05:33:20.666Z,988.00
2018-07-16T05:35:46.183Z,1036.00
2018-07-16T05:36:46.190Z,1068.00
2018-07-16T05:37:46.192Z,1052.00
2018-07-16T05:38:46.701Z,1052.00
2018-07-16T05:39:46.690Z,1052.00
2018-07-16T05:40:46.691Z,1056.00
2018-07-16T05:41:46.692Z,1048.00
2018-07-16T05:42:47.204Z,1036.00
2018-07-16T05:43:46.466Z,1044.00
2018-07-16T05:44:50.122Z,1048.00
2018-07-16T05:45:46.672Z,1060.00
2018-07-16T05:46:47.693Z,1064.00
2018-07-16T05:47:49.123Z,1044.00
2018-07-16T05:49:08.693Z,1040.00
2018-07-16T05:49:47.694Z,1028.00
2018-07-16T05:51:08.288Z,1012.00
2018-07-16T05:52:09.190Z,940.00
2018-07-16T05:53:09.192Z,924.00
2018-07-16T05:54:09.193Z,928.00
2018-07-16T05:54:49.622Z,952.00
2018-07-16T05:56:09.691Z,996.00
2018-07-16T05:57:09.691Z,1000.00
2018-07-16T05:58:09.702Z,1008.00
2018-07-16T05:58:49.196Z,1060.00
2018-07-16T06:00:10.195Z,1124.00
2018-07-16T06:01:10.193Z,1172.00
2018-07-16T06:01:55.691Z,1148.00
2018-07-16T06:02:48.791Z,1132.00
2018-07-16T06:04:10.700Z,1136.00
2018-07-16T06:04:49.757Z,1124.00
2018-07-16T06:07:21.387Z,1184.00
2018-07-16T06:08:21.391Z,1216.00
2018-07-16T06:09:21.370Z,1264.00
2018-07-16T06:10:21.873Z,1272.00
2018-07-16T06:11:23.903Z,1288.00
2018-07-16T06:12:21.870Z,1304.00
2018-07-16T06:13:21.870Z,1324.00
2018-07-16T06:16:00.118Z,1320.00
2018-07-16T06:17:16.101Z,1344.00
2018-07-16T06:18:15.122Z,1368.00
2018-07-16T06:18:54.121Z,1400.00
2018-07-16T06:22:57.312Z,1408.00
2018-07-16T06:23:58.335Z,1436.00
2018-07-16T06:24:59.241Z,1452.00
2018-07-16T06:29:00.473Z,1500.00
2018-07-16T06:29:59.824Z,1508.00
2018-07-16T06:31:00.487Z,1520.00
2018-07-16T06:32:14.976Z,1524.00
2018-07-16T06:36:24.792Z,1548.00
2018-07-16T06:37:25.844Z,1556.00
2018-07-16T06:38:03.798Z,1560.00
2018-07-16T06:39:25.266Z,1572.00
2018-07-16T06:40:25.452Z,1572.00
2018-07-16T06:41:04.614Z,1572.00
2018-07-16T06:42:05.262Z,1576.00
2018-07-16T06:44:57.009Z,1568.00
2018-07-16T06:45:37.013Z,1568.00
2018-07-16T06:46:36.021Z,1572.00
2018-07-16T06:49:16.701Z,1580.00
2018-07-16T06:50:21.781Z,1580.00
2018-07-16T06:51:28.766Z,1588.00
2018-07-16T06:53:40.029Z,1596.00
2018-07-16T06:55:00.370Z,1628.00
2018-07-16T06:56:02.968Z,1664.00
2018-07-16T06:58:32.814Z,1708.00
2018-07-16T06:59:13.853Z,1724.00
2018-07-16T07:00:32.821Z,1736.00
2018-07-16T07:01:13.345Z,1740.00
2018-07-16T07:02:26.409Z,1752.00
2018-07-16T07:03:11.670Z,1760.00
2018-07-16T07:04:12.321Z,1768.00
2018-07-16T07:05:12.821Z,1776.00
2018-07-16T07:06:33.815Z,1788.00
2018-07-16T07:07:13.754Z,1816.00
2018-07-16T07:08:12.822Z,1832.00
2018-07-16T07:09:13.785Z,1836.00
2018-07-16T07:10:27.327Z,1836.00
2018-07-16T07:11:13.328Z,1828.00
2018-07-16T07:12:34.328Z,1840.00
2018-07-16T07:13:13.822Z,1856.00
2018-07-16T07:17:15.949Z,1876.00
2018-07-16T07:18:18.009Z,1908.00
2018-07-16T07:19:16.662Z,1912.00
2018-07-16T07:20:17.156Z,1928.00
2018-07-16T07:21:19.156Z,1944.00
2018-07-16T07:22:17.157Z,1964.00
2018-07-16T07:23:16.631Z,1968.00
2018-07-16T07:24:31.657Z,1996.00
2018-07-16T07:25:19.142Z,2016.00
2018-07-16T07:27:17.656Z,2076.00
2018-07-16T07:28:19.122Z,2104.00
2018-07-16T07:29:17.231Z,2128.00
2018-07-16T07:30:38.349Z,2160.00
2018-07-16T07:31:19.595Z,2184.00
2018-07-16T07:32:24.156Z,2208.00
2018-07-16T07:33:24.657Z,2232.00
2018-07-16T07:34:20.674Z,2252.00
2018-07-16T07:35:18.737Z,2288.00
2018-07-16T07:36:19.589Z,2292.00
2018-07-16T07:38:50.403Z,2348.00
2018-07-16T07:39:49.756Z,2372.00
2018-07-16T07:41:11.411Z,2388.00
2018-07-16T07:42:11.911Z,2416.00
2018-07-16T07:43:11.918Z,2444.00
2018-07-16T07:46:53.876Z,2540.00
2018-07-16T07:47:53.883Z,2564.00
2018-07-16T07:48:53.883Z,2588.00
2018-07-16T07:51:24.915Z,2628.00
2018-07-16T07:52:25.651Z,2652.00
2018-07-16T07:53:25.649Z,2664.00
2018-07-16T07:54:25.270Z,2684.00
2018-07-16T07:57:20.526Z,2724.00
2018-07-16T07:57:57.477Z,2732.00
2018-07-16T07:58:58.448Z,2744.00
2018-07-16T07:59:58.016Z,2760.00
2018-07-16T08:02:35.405Z,2784.00
2018-07-16T08:03:28.796Z,2796.00
2018-07-16T08:04:30.847Z,2820.00
2018-07-16T08:05:34.344Z,2816.00
2018-07-16T08:08:22.231Z,2868.00
2018-07-16T08:13:34.954Z,2900.00
2018-07-16T08:14:35.649Z,2920.00
2018-07-16T08:15:35.649Z,2928.00
2018-07-16T08:16:57.148Z,2936.00
2018-07-16T08:17:36.150Z,2940.00
2018-07-16T08:18:35.501Z,2920.00
2018-07-16T08:19:36.151Z,2936.00
2018-07-16T08:20:38.116Z,2940.00
2018-07-16T08:21:36.649Z,2944.00
2018-07-16T08:22:36.651Z,2940.00
2018-07-16T08:23:36.692Z,2928.00
2018-07-16T08:24:37.150Z,2916.00
2018-07-16T08:25:36.398Z,2912.00
2018-07-16T08:26:37.149Z,2956.00
2018-07-16T08:27:37.154Z,2972.00
2018-07-16T08:31:41.280Z,3004.00
2018-07-16T08:33:02.346Z,3032.00
2018-07-16T08:33:40.358Z,3052.00
2018-07-16T08:34:40.855Z,3052.00
2018-07-16T08:35:40.850Z,3064.00
2018-07-16T08:38:12.191Z,3108.00
2018-07-16T08:39:12.952Z,3112.00
2018-07-16T08:40:13.352Z,3132.00
2018-07-16T08:41:13.408Z,3140.00
2018-07-16T08:42:13.409Z,3148.00
2018-07-16T08:43:13.407Z,3156.00
2018-07-16T08:44:12.764Z,3152.00
2018-07-16T08:45:13.407Z,3168.00
2018-07-16T08:46:13.926Z,3180.00
2018-07-16T08:47:36.910Z,3188.00
2018-07-16T08:48:13.918Z,3220.00
2018-07-16T08:49:13.401Z,3232.00
2018-07-16T08:50:14.413Z,3248.00
2018-07-16T08:51:13.640Z,3256.00
2018-07-16T08:52:14.409Z,3272.00
2018-07-16T08:53:13.913Z,3272.00
2018-07-16T08:56:07.181Z,3296.00
2018-07-16T08:56:45.537Z,3308.00
2018-07-16T08:57:45.641Z,3328.00
2018-07-16T09:00:38.934Z,3360.00
2018-07-16T09:04:21.203Z,3416.00
2018-07-16T09:05:21.197Z,3436.00
2018-07-16T09:06:21.194Z,3464.00
2018-07-16T09:07:23.697Z,3472.00
2018-07-16T09:08:21.695Z,3492.00
2018-07-16T09:09:21.693Z,3500.00
2018-07-16T09:10:27.694Z,3512.00
2018-07-16T09:11:45.196Z,3516.00
2018-07-16T09:12:22.194Z,3524.00
2018-07-16T09:13:23.248Z,3540.00
2018-07-16T09:14:22.194Z,3552.00
2018-07-16T09:16:55.471Z,3580.00
2018-07-16T09:17:53.985Z,3620.00
2018-07-16T09:18:53.985Z,3664.00
2018-07-16T09:24:34.976Z,3864.00
2018-07-16T09:25:29.012Z,3892.00
2018-07-16T09:28:02.685Z,3952.00
2018-07-16T09:29:00.659Z,3964.00
2018-07-16T09:30:21.659Z,3980.00
2018-07-16T09:31:01.161Z,4008.00
2018-07-16T09:32:07.168Z,4016.00
2018-07-16T09:33:01.159Z,4032.00
2018-07-16T09:34:01.159Z,4036.00
2018-07-16T09:35:01.660Z,4056.00
2018-07-16T09:36:27.591Z,4064.00
2018-07-16T09:37:01.012Z,4072.00
2018-07-16T09:39:35.377Z,4088.00
2018-07-16T09:40:56.379Z,4084.00
2018-07-16T09:41:54.379Z,4088.00
2018-07-16T09:42:53.971Z,4092.00
2018-07-16T09:43:33.121Z,4104.00
2018-07-16T09:49:22.285Z,4164.00
2018-07-16T09:50:08.298Z,4176.00
2018-07-16T09:51:08.298Z,4196.00
2018-07-16T09:53:46.558Z,4260.00
2018-07-16T09:55:01.571Z,4276.00
2018-07-16T09:56:01.599Z,4300.00
2018-07-16T09:58:12.328Z,4340.00
2018-07-16T09:59:26.341Z,4376.00
2018-07-16T10:00:12.851Z,4392.00
2018-07-16T10:01:35.847Z,4420.00
2018-07-16T10:02:12.078Z,4444.00
2018-07-16T10:03:12.835Z,4464.00
2018-07-16T10:04:15.304Z,4468.00
2018-07-16T10:05:13.840Z,4484.00
2018-07-16T10:07:45.289Z,4524.00
2018-07-16T10:08:59.243Z,4544.00
2018-07-16T10:10:07.716Z,4564.00
2018-07-16T10:12:16.765Z,4564.00
2018-07-16T10:13:16.763Z,4604.00
2018-07-16T10:14:16.775Z,4660.00
2018-07-16T10:15:16.397Z,4700.00
2018-07-16T10:16:19.741Z,4740.00
2018-07-16T10:17:17.263Z,4776.00
2018-07-16T10:18:17.262Z,4804.00
2018-07-16T10:19:20.695Z,4840.00
2018-07-16T10:20:17.772Z,4864.00
2018-07-16T10:21:38.137Z,4896.00
2018-07-16T10:22:17.764Z,4924.00
2018-07-16T10:23:18.263Z,4940.00
2018-07-16T10:24:19.696Z,4972.00
2018-07-16T10:28:35.229Z,5048.00
2018-07-16T10:29:35.226Z,5088.00
2018-07-16T10:30:27.216Z,5060.00
2018-07-16T10:31:23.723Z,5104.00
2018-07-16T10:35:23.892Z,5276.00
2018-07-16T10:36:24.568Z,5280.00
2018-07-16T10:37:27.077Z,5284.00
2018-07-16T10:38:46.102Z,5312.00
2018-07-16T10:39:27.080Z,5296.00
2018-07-16T10:40:25.072Z,5200.00
2018-07-16T10:45:11.080Z,5384.00
2018-07-16T10:54:26.339Z,5728.00
2018-07-16T10:55:03.881Z,5776.00
2018-07-16T10:56:03.858Z,5828.00
2018-07-16T10:57:06.369Z,5872.00
2018-07-16T10:58:04.359Z,5900.00
2018-07-16T10:59:25.355Z,5964.00
2018-07-16T11:01:10.868Z,6076.00
2018-07-16T11:02:28.861Z,6152.00
2018-07-16T11:04:58.316Z,6380.00
2018-07-16T11:07:28.159Z,6492.00
2018-07-16T11:08:09.863Z,6540.00
2018-07-16T11:09:07.922Z,6592.00
2018-07-16T11:12:51.219Z,6504.00
2018-07-16T11:13:59.656Z,6484.00
2018-07-16T11:14:37.224Z,6484.00
2018-07-16T11:15:59.223Z,6552.00
2018-07-16T11:16:58.735Z,6744.00
2018-07-16T11:17:37.726Z,6844.00
2018-07-16T11:19:04.726Z,6952.00
2018-07-16T11:19:37.727Z,6976.00
2018-07-16T11:20:38.224Z,7152.00
2018-07-16T11:21:39.233Z,7192.00
2018-07-16T11:22:38.315Z,7160.00
2018-07-16T11:23:38.248Z,7228.00
2018-07-16T11:24:38.727Z,7316.00
2018-07-16T11:25:58.965Z,7448.00
2018-07-16T11:26:38.744Z,7644.00
2018-07-16T11:27:38.726Z,7600.00
2018-07-16T11:28:47.158Z,7348.00
2018-07-16T11:29:38.503Z,7536.00
2018-07-16T11:30:38.613Z,7432.00
2018-07-16T11:31:38.747Z,7440.00
2018-07-16T11:37:15.909Z,7904.00
2018-07-16T11:38:15.936Z,7676.00
2018-07-16T11:39:13.936Z,7380.00
2018-07-16T11:40:16.436Z,7476.00
2018-07-16T11:42:46.344Z,7856.00
2018-07-16T11:43:46.349Z,8072.00
2018-07-16T11:45:07.410Z,8276.00
2018-07-16T11:47:24.067Z,9044.00
2018-07-16T11:48:38.429Z,9112.00
2018-07-16T11:49:18.178Z,8976.00
2018-07-16T11:50:20.581Z,9008.00
2018-07-16T11:51:18.588Z,8936.00
2018-07-16T11:52:18.646Z,9208.00
2018-07-16T11:53:18.061Z,9468.00
2018-07-16T11:55:50.438Z,10332.00
2018-07-16T11:57:10.711Z,10308.00
2018-07-16T11:57:50.372Z,9704.00
2018-07-16T12:01:53.643Z,6588.00
2018-07-16T12:03:15.630Z,7148.00
2018-07-16T12:03:53.634Z,6496.00
2018-07-16T12:04:56.135Z,6340.00
2018-07-16T12:05:54.141Z,7176.00
2018-07-16T12:06:58.073Z,6224.00
2018-07-16T12:07:54.136Z,6672.00
2018-07-16T12:09:08.635Z,7064.00
2018-07-16T12:11:26.039Z,7788.00
2018-07-16T12:12:25.497Z,8264.00
2018-07-16T12:13:26.046Z,7320.00
2018-07-16T12:14:49.026Z,6932.00
2018-07-16T12:16:57.926Z,6252.00
2018-07-16T12:17:57.929Z,6036.00
2018-07-16T12:18:59.364Z,5988.00
2018-07-16T12:21:28.975Z,6112.00
2018-07-16T12:22:29.108Z,6116.00
2018-07-16T12:23:29.708Z,5912.00
2018-07-16T12:26:07.492Z,5832.00
2018-07-16T12:27:01.498Z,5452.00
2018-07-16T12:28:01.507Z,5088.00
2018-07-16T12:29:22.999Z,5072.00
2018-07-16T12:33:06.841Z,6340.00
2018-07-16T12:35:43.313Z,6672.00
2018-07-16T12:36:36.384Z,6684.00
2018-07-16T12:37:36.384Z,6816.00
2018-07-16T12:40:10.141Z,6768.00
2018-07-16T12:41:08.190Z,6484.00
2018-07-16T12:42:35.690Z,6328.00
2018-07-16T12:43:29.695Z,6428.00
2018-07-16T12:44:29.693Z,6184.00
2018-07-16T12:45:08.693Z,5752.00
2018-07-16T12:49:13.909Z,5536.00
2018-07-16T12:50:35.848Z,5560.00
2018-07-16T12:51:12.848Z,5340.00
2018-07-16T12:52:32.502Z,5172.00
2018-07-16T12:53:14.416Z,4932.00
2018-07-16T12:54:34.849Z,4768.00
2018-07-16T12:55:12.417Z,4728.00
2018-07-16T12:56:14.918Z,4736.00
2018-07-16T12:57:12.173Z,4616.00
2018-07-16T12:58:12.917Z,4432.00
2018-07-16T12:59:12.918Z,4400.00
2018-07-16T13:00:19.417Z,4492.00
2018-07-16T13:02:45.323Z,5132.00
2018-07-16T13:03:44.805Z,5352.00
2018-07-16T13:04:47.827Z,5632.00
2018-07-16T13:05:47.784Z,5880.00
2018-07-16T13:06:45.828Z,6024.00
2018-07-16T13:07:45.825Z,6088.00
2018-07-16T13:09:13.329Z,6144.00
2018-07-16T13:10:00.339Z,6204.00
2018-07-16T13:11:07.328Z,6236.00
2018-07-16T13:12:09.294Z,6208.00
2018-07-16T13:14:18.072Z,6304.00
2018-07-16T13:15:18.084Z,6488.00
2018-07-16T13:16:39.086Z,6684.00
2018-07-16T13:20:27.326Z,6704.00
2018-07-16T13:21:44.337Z,6620.00
2018-07-16T13:22:21.323Z,6656.00
2018-07-16T13:23:23.824Z,6796.00
2018-07-16T13:25:59.221Z,6976.00
2018-07-16T13:26:53.229Z,7080.00
2018-07-16T13:28:14.229Z,7144.00
2018-07-16T13:28:52.829Z,7140.00
2018-07-16T13:31:27.084Z,7208.00
2018-07-16T13:32:25.620Z,7284.00
2018-07-16T13:34:57.127Z,8096.00
2018-07-16T13:35:57.138Z,8472.00
2018-07-16T13:36:57.145Z,8540.00
2018-07-16T13:37:57.632Z,8104.00
2018-07-16T13:42:00.493Z,6660.00
2018-07-16T13:42:59.867Z,6456.00
2018-07-16T13:44:00.498Z,6396.00
2018-07-16T13:45:01.006Z,6404.00
2018-07-16T13:47:34.401Z,6324.00
2018-07-16T13:48:32.408Z,6324.00
2018-07-16T13:49:59.405Z,6364.00
2018-07-16T13:50:32.014Z,6428.00
2018-07-16T13:51:32.907Z,6584.00
2018-07-16T13:52:32.260Z,7492.00
2018-07-16T13:53:32.910Z,8248.00
2018-07-16T13:54:33.422Z,8604.00
2018-07-16T13:55:55.844Z,8708.00
2018-07-16T13:56:54.466Z,8536.00
2018-07-16T13:57:34.840Z,7196.00
2018-07-16T13:58:33.008Z,6216.00
2018-07-16T13:59:54.911Z,5840.00
2018-07-16T14:00:33.910Z,5960.00
2018-07-16T14:01:33.910Z,6240.00
2018-07-16T14:02:34.410Z,6716.00
2018-07-16T14:03:34.409Z,7304.00
2018-07-16T14:04:55.409Z,7868.00
2018-07-16T14:05:34.415Z,8768.00
2018-07-16T14:06:34.908Z,9588.00
2018-07-16T14:07:34.908Z,10112.00
2018-07-16T14:08:34.909Z,11252.00
2018-07-16T14:09:34.909Z,12304.00
2018-07-16T14:10:35.410Z,14476.00
2018-07-16T14:11:56.412Z,12216.00
2018-07-16T14:12:35.409Z,10776.00
2018-07-16T14:13:35.412Z,10092.00
2018-07-16T14:19:10.385Z,15328.00
2018-07-16T14:20:10.392Z,15136.00
2018-07-16T14:21:10.895Z,14264.00
2018-07-16T14:22:10.894Z,13388.00
2018-07-16T14:23:10.897Z,12924.00
2018-07-16T14:24:12.354Z,12432.00
2018-07-16T14:25:10.907Z,13732.00
2018-07-16T14:28:03.694Z,19264.00
2018-07-16T14:28:42.704Z,16832.00
2018-07-16T14:29:42.700Z,12724.00
2018-07-16T14:30:49.200Z,13892.00
2018-07-16T14:32:03.482Z,15800.00
2018-07-16T14:32:43.208Z,17984.00
2018-07-16T14:33:43.200Z,17088.00
2018-07-16T14:35:03.795Z,18304.00
2018-07-16T14:37:15.079Z,18272.00
2018-07-16T14:38:35.422Z,18656.00
2018-07-16T14:39:15.107Z,17152.00
2018-07-16T14:40:15.586Z,15464.00
2018-07-16T14:41:17.044Z,18720.00
2018-07-16T14:42:14.926Z,18144.00
2018-07-16T14:43:15.586Z,17952.00
2018-07-16T14:44:23.084Z,16864.00
2018-07-16T14:45:16.087Z,16032.00
2018-07-16T14:46:16.087Z,15712.00
2018-07-16T14:47:16.086Z,13340.00
2018-07-16T14:52:56.778Z,14296.00
2018-07-16T14:54:11.785Z,14000.00
2018-07-16T14:55:04.784Z,13712.00
2018-07-16T14:55:58.217Z,13440.00
2018-07-16T14:57:12.342Z,13044.00
2018-07-16T14:58:12.285Z,13016.00
2018-07-16T14:59:13.741Z,13192.00
2018-07-16T15:01:05.717Z,13096.00
2018-07-16T15:01:51.137Z,12860.00
2018-07-16T15:02:53.217Z,13600.00
2018-07-16T15:05:23.586Z,7212.00
2018-07-16T15:06:23.602Z,11676.00
2018-07-16T15:07:25.032Z,12760.00
2018-07-16T15:08:24.110Z,12656.00
2018-07-16T15:10:55.532Z,11472.00
2018-07-16T15:11:54.893Z,11320.00
2018-07-16T15:12:55.539Z,11268.00
2018-07-16T15:13:56.067Z,11232.00
2018-07-16T15:14:55.297Z,11392.00
2018-07-16T15:15:56.047Z,11528.00
2018-07-16T15:16:56.040Z,11668.00
2018-07-16T15:18:17.542Z,11808.00
2018-07-16T15:18:57.972Z,12052.00
2018-07-16T15:19:57.992Z,11496.00
2018-07-16T15:20:56.722Z,11984.00
2018-07-16T15:21:59.041Z,11760.00
2018-07-16T15:22:57.041Z,11812.00
2018-07-16T15:24:18.039Z,11664.00
2018-07-16T15:26:28.715Z,12028.00
2018-07-16T15:27:28.723Z,12252.00
2018-07-16T15:28:28.722Z,12412.00
2018-07-16T15:29:28.335Z,11836.00
2018-07-16T15:30:28.753Z,11392.00
2018-07-16T15:31:29.229Z,11084.00
2018-07-16T15:32:49.691Z,10748.00
2018-07-16T15:33:29.723Z,11440.00
2018-07-16T15:34:31.723Z,11676.00
2018-07-16T15:35:31.771Z,11356.00
2018-07-16T15:36:50.204Z,11328.00
2018-07-16T15:37:44.223Z,11040.00
2018-07-16T15:38:36.223Z,7276.00
2018-07-16T15:39:30.222Z,6980.00
2018-07-16T15:40:30.220Z,6888.00
2018-07-16T15:42:05.723Z,6736.00
2018-07-16T15:42:53.203Z,7976.00
2018-07-16T15:43:32.155Z,6340.00
2018-07-16T15:44:51.723Z,6036.00
2018-07-16T15:47:02.515Z,5580.00
2018-07-16T15:49:55.529Z,5084.00
2018-07-16T15:50:34.534Z,7912.00
2018-07-16T15:51:35.533Z,4780.00
2018-07-16T15:52:34.533Z,4748.00
2018-07-16T15:53:41.092Z,4600.00